createdAt,value
2022-07-27T00:01:28.463Z,77.80
2022-07-27T00:03:59.142Z,77.00
2022-07-27T00:06:28.441Z,78.70
2022-07-27T00:08:57.530Z,77.60
2022-07-27T00:11:26.682Z,79.10
2022-07-27T00:13:57.352Z,78.00
2022-07-27T00:16:26.554Z,79.20
2022-07-27T00:18:55.700Z,79.00
2022-07-27T00:21:27.332Z,79.30
2022-07-27T00:23:56.742Z,79.60
2022-07-27T00:26:25.921Z,79.10
2022-07-27T00:28:54.988Z,77.40
2022-07-27T00:31:24.116Z,76.90
2022-07-27T00:33:53.340Z,75.90
2022-07-27T00:36:22.457Z,75.60
2022-07-27T00:38:52.979Z,74.50
2022-07-27T00:41:22.341Z,75.30
2022-07-27T00:43:52.931Z,75.70
2022-07-27T00:46:22.141Z,75.60
2022-07-27T00:48:52.159Z,76.00
2022-07-27T00:51:22.901Z,75.50
2022-07-27T00:53:54.550Z,76.00
2022-07-27T00:56:24.319Z,75.80
2022-07-27T00:58:54.740Z,75.90
2022-07-27T01:01:23.871Z,76.30
2022-07-27T01:03:55.438Z,75.90
2022-07-27T01:06:27.263Z,76.50
2022-07-27T01:09:19.575Z,77.30
2022-07-27T01:11:50.110Z,77.10
2022-07-27T01:14:19.533Z,78.00
2022-07-27T01:16:48.656Z,78.20
2022-07-27T01:19:17.785Z,78.10
2022-07-27T01:21:48.312Z,78.20
2022-07-27T01:24:17.415Z,78.00
2022-07-27T01:26:46.696Z,78.00
2022-07-27T01:29:15.934Z,78.20
2022-07-27T01:31:46.224Z,78.40
2022-07-27T01:34:15.415Z,78.10
2022-07-27T01:36:46.167Z,78.60
2022-07-27T01:39:18.003Z,79.30
2022-07-27T01:41:47.652Z,78.50
2022-07-27T01:44:16.797Z,78.70
2022-07-27T01:46:45.994Z,78.10
2022-07-27T01:49:15.886Z,77.60
2022-07-27T01:51:45.570Z,78.30
2022-07-27T01:54:16.173Z,78.70
2022-07-27T01:56:45.582Z,78.20
2022-07-27T01:59:14.782Z,78.70
2022-07-27T02:01:45.907Z,78.10
2022-07-27T02:04:15.057Z,79.90
2022-07-27T02:06:44.189Z,80.30
2022-07-27T02:09:13.478Z,79.40
2022-07-27T02:12:01.872Z,79.30
2022-07-27T02:14:30.905Z,80.20
2022-07-27T02:17:00.272Z,80.40
2022-07-27T02:19:29.565Z,80.40
2022-07-27T02:21:58.653Z,80.70
2022-07-27T02:24:29.481Z,79.60
2022-07-27T02:27:00.069Z,80.60
2022-07-27T02:29:29.066Z,78.00
2022-07-27T02:31:58.200Z,78.50
2022-07-27T02:34:27.280Z,79.70
2022-07-27T02:36:56.500Z,82.70
2022-07-27T02:39:25.600Z,84.20
2022-07-27T02:41:54.785Z,84.10
2022-07-27T02:44:25.327Z,83.30
2022-07-27T02:46:54.442Z,83.10
2022-07-27T02:49:25.283Z,83.10
2022-07-27T02:51:55.536Z,83.80
2022-07-27T02:54:25.510Z,84.40
2022-07-27T02:56:55.531Z,84.60
2022-07-27T02:59:26.112Z,85.00
2022-07-27T03:01:55.252Z,85.40
2022-07-27T03:04:24.655Z,87.10
2022-07-27T03:06:53.795Z,86.60
2022-07-27T03:09:33.117Z,86.20
2022-07-27T03:12:02.712Z,87.00
2022-07-27T03:14:33.292Z,86.80
2022-07-27T03:17:02.372Z,86.10
2022-07-27T03:19:31.472Z,85.40
2022-07-27T03:22:00.602Z,86.10
2022-07-27T03:24:29.694Z,83.80
2022-07-27T03:26:59.094Z,84.20
2022-07-27T03:29:28.163Z,85.40
2022-07-27T03:43:59.494Z,90.50
2022-07-27T03:46:28.710Z,90.20
2022-07-27T03:48:58.528Z,90.30
2022-07-27T03:51:27.937Z,90.20
2022-07-27T03:53:57.271Z,90.50
2022-07-27T03:56:26.341Z,91.40
2022-07-27T03:58:55.660Z,91.80
2022-07-27T04:01:26.296Z,92.00
2022-07-27T04:03:55.488Z,92.30
2022-07-27T04:06:26.006Z,93.90
2022-07-27T04:08:59.638Z,95.70
2022-07-27T04:11:43.399Z,96.20
2022-07-27T04:14:20.123Z,96.60
2022-07-27T04:16:50.618Z,96.80
2022-07-27T04:19:19.745Z,96.90
2022-07-27T04:21:48.822Z,97.00
2022-07-27T04:24:17.860Z,96.90
2022-07-27T04:26:46.890Z,96.90
2022-07-27T04:29:20.398Z,96.70
2022-07-27T04:31:51.882Z,96.80
2022-07-27T04:34:22.023Z,96.60
2022-07-27T04:36:51.620Z,96.40
2022-07-27T04:39:20.765Z,96.50
2022-07-27T04:41:51.888Z,96.60
2022-07-27T04:44:21.065Z,96.60
2022-07-27T04:46:52.810Z,96.40
2022-07-27T04:49:22.036Z,96.50
2022-07-27T04:51:52.673Z,96.60
2022-07-27T04:54:21.963Z,96.80
2022-07-27T04:56:51.390Z,96.50
2022-07-27T04:59:20.528Z,96.40
2022-07-27T05:01:51.293Z,96.50
2022-07-27T05:04:20.489Z,96.60
2022-07-27T05:06:49.770Z,96.90
2022-07-27T05:09:22.372Z,97.20
2022-07-27T05:11:52.149Z,97.00
2022-07-27T05:14:21.950Z,97.50
2022-07-27T05:16:52.722Z,97.80
2022-07-27T05:19:22.581Z,97.40
2022-07-27T05:22:10.713Z,97.30
2022-07-27T05:24:39.833Z,97.10
2022-07-27T05:27:08.942Z,97.70
2022-07-27T05:29:37.999Z,97.30
2022-07-27T05:32:09.268Z,97.60
2022-07-27T05:34:38.460Z,97.20
2022-07-27T05:37:07.571Z,96.80
2022-07-27T05:39:37.612Z,95.90
2022-07-27T05:42:07.072Z,95.50
2022-07-27T05:44:36.294Z,95.00
2022-07-27T05:47:05.972Z,95.10
2022-07-27T05:49:37.587Z,95.60
2022-07-27T05:52:07.997Z,95.80
2022-07-27T05:54:37.088Z,95.70
2022-07-27T05:57:06.496Z,95.70
2022-07-27T05:59:38.101Z,95.00
2022-07-27T06:02:07.358Z,95.20
2022-07-27T06:04:38.304Z,94.60
2022-07-27T06:07:24.958Z,94.60
2022-07-27T06:09:54.079Z,94.10
2022-07-27T06:12:23.221Z,94.50
2022-07-27T06:14:59.382Z,95.00
2022-07-27T06:17:28.531Z,94.80
2022-07-27T06:19:59.181Z,94.30
2022-07-27T06:43:02.368Z,94.70
2022-07-27T06:45:31.968Z,93.30
2022-07-27T06:48:01.356Z,92.90
2022-07-27T06:50:31.041Z,92.00
2022-07-27T06:53:00.437Z,91.90
2022-07-27T06:55:30.204Z,91.60
2022-07-27T06:58:01.777Z,91.80
2022-07-27T07:00:31.378Z,92.40
2022-07-27T07:03:02.250Z,92.30
2022-07-27T07:47:34.287Z,90.60
2022-07-27T07:50:03.964Z,88.90
2022-07-27T07:52:33.728Z,89.40
2022-07-27T07:55:03.532Z,88.10
2022-07-27T07:57:33.296Z,88.80
2022-07-27T08:00:02.967Z,88.70
2022-07-27T08:02:52.421Z,87.80
2022-07-27T08:05:23.236Z,88.20
2022-07-27T08:07:53.499Z,89.20
2022-07-27T08:10:24.056Z,88.90
2022-07-27T08:12:56.656Z,90.40
2022-07-27T08:15:30.082Z,89.80
2022-07-27T08:18:07.046Z,87.70
2022-07-27T08:20:37.257Z,88.30
2022-07-27T08:23:07.627Z,88.30
2022-07-27T08:25:39.362Z,88.50
2022-07-27T08:28:10.084Z,86.40
2022-07-27T08:30:39.756Z,88.20
2022-07-27T08:33:10.805Z,89.30
2022-07-27T08:35:40.406Z,89.10
2022-07-27T08:38:11.576Z,88.30
2022-07-27T08:40:45.200Z,86.70
2022-07-27T08:43:24.313Z,86.50
2022-07-27T08:45:58.449Z,87.60
2022-07-27T08:48:32.199Z,86.90
2022-07-27T08:51:01.803Z,86.20
2022-07-27T08:53:52.624Z,87.20
2022-07-27T08:56:23.531Z,87.20
2022-07-27T08:58:53.003Z,87.70
2022-07-27T09:01:22.619Z,87.10
2022-07-27T09:03:53.795Z,86.10
2022-07-27T09:06:42.724Z,85.90
2022-07-27T09:09:15.968Z,85.50
2022-07-27T09:11:46.339Z,83.70
2022-07-27T09:14:15.879Z,84.10
2022-07-27T09:17:44.117Z,81.40
2022-07-27T09:19:55.374Z,84.20
2022-07-27T09:22:43.470Z,82.70
2022-07-27T09:25:14.404Z,83.60
2022-07-27T09:27:44.630Z,81.70
2022-07-27T09:30:16.443Z,81.70
2022-07-27T09:32:55.970Z,80.60
2022-07-27T09:35:30.314Z,81.80
2022-07-27T09:38:18.009Z,81.60
2022-07-27T09:40:49.986Z,79.20
2022-07-27T09:44:12.499Z,79.20
2022-07-27T09:46:09.466Z,77.30
2022-07-27T09:48:39.459Z,77.10
2022-07-27T09:51:48.934Z,78.20
2022-07-27T09:54:08.790Z,78.50
2022-07-27T09:56:38.577Z,76.40
2022-07-27T09:59:08.104Z,78.80
2022-07-27T10:01:47.715Z,76.10
2022-07-27T10:04:18.230Z,74.20
2022-07-27T10:07:02.344Z,75.50
2022-07-27T10:09:34.338Z,73.80
2022-07-27T10:12:05.044Z,74.10
2022-07-27T10:14:35.592Z,72.50
2022-07-27T10:17:05.543Z,74.50
2022-07-27T10:19:43.173Z,72.10
2022-07-27T10:22:14.722Z,73.40
2022-07-27T10:24:48.736Z,72.70
2022-07-27T10:27:24.179Z,74.90
2022-07-27T10:29:54.024Z,71.90
2022-07-27T10:32:27.368Z,72.50
2022-07-27T10:34:57.097Z,73.00
2022-07-27T10:37:29.959Z,71.90
2022-07-27T10:40:18.039Z,71.70
2022-07-27T10:42:54.311Z,72.20
2022-07-27T10:45:24.637Z,71.80
2022-07-27T10:47:54.680Z,71.00
2022-07-27T10:50:32.231Z,72.50
2022-07-27T10:53:11.110Z,71.70
2022-07-27T10:55:51.981Z,70.60
2022-07-27T10:58:50.700Z,70.30
2022-07-27T11:01:22.548Z,70.80
2022-07-27T11:03:56.608Z,71.20
2022-07-27T11:06:48.166Z,69.10
2022-07-27T11:10:03.206Z,70.30
2022-07-27T11:12:17.076Z,70.80
2022-07-27T11:14:50.218Z,68.40
2022-07-27T11:17:50.859Z,65.30
2022-07-27T11:20:13.369Z,69.00
2022-07-27T11:25:35.481Z,67.50
2022-07-27T11:28:08.889Z,67.20
2022-07-27T11:30:38.623Z,66.50
2022-07-27T11:33:08.434Z,66.60
2022-07-27T11:35:38.113Z,66.80
2022-07-27T11:38:08.884Z,64.90
2022-07-27T11:40:58.127Z,67.80
2022-07-27T11:43:37.550Z,67.40
2022-07-27T11:46:18.766Z,65.10
2022-07-27T11:49:06.620Z,67.50
2022-07-27T11:51:37.976Z,65.70
2022-07-27T11:54:09.600Z,65.90
2022-07-27T11:56:44.748Z,64.90
2022-07-27T11:59:25.503Z,63.70
2022-07-27T12:01:57.254Z,62.00
2022-07-27T12:04:29.601Z,64.70
2022-07-27T12:07:10.954Z,65.10
2022-07-27T12:09:45.016Z,62.80
2022-07-27T12:12:17.940Z,65.00
2022-07-27T12:14:51.395Z,63.70
2022-07-27T12:17:23.516Z,64.80
2022-07-27T12:19:58.828Z,62.80
2022-07-27T12:22:33.075Z,64.20
2022-07-27T12:25:10.043Z,62.80
2022-07-27T12:27:57.826Z,63.70
2022-07-27T12:30:37.766Z,61.90
2022-07-27T12:33:09.726Z,63.30
2022-07-27T12:35:47.102Z,62.20
2022-07-27T12:38:17.049Z,62.70
2022-07-27T12:40:48.343Z,60.00
2022-07-27T12:43:21.660Z,59.60
2022-07-27T12:45:54.506Z,59.50
2022-07-27T12:48:25.777Z,59.40
2022-07-27T12:51:02.015Z,56.70
2022-07-27T12:53:32.469Z,58.20
2022-07-27T12:56:05.945Z,58.90
2022-07-27T12:58:38.327Z,56.60
2022-07-27T13:01:08.792Z,54.70
2022-07-27T13:03:38.548Z,55.90
2022-07-27T13:06:13.014Z,53.60
2022-07-27T13:08:43.381Z,53.20
2022-07-27T13:11:13.782Z,53.80
2022-07-27T13:13:45.224Z,54.70
2022-07-27T13:16:14.987Z,52.20
2022-07-27T13:18:44.602Z,52.20
2022-07-27T13:21:15.486Z,53.70
2022-07-27T13:23:45.316Z,52.30
2022-07-27T13:26:14.982Z,52.20
2022-07-27T13:28:46.101Z,52.50
2022-07-27T13:31:17.877Z,49.00
2022-07-27T13:33:47.523Z,50.50
2022-07-27T13:36:18.167Z,49.30
2022-07-27T13:38:47.826Z,51.60
2022-07-27T13:41:17.742Z,50.10
2022-07-27T13:43:49.006Z,49.90
2022-07-27T13:46:18.833Z,49.10
2022-07-27T13:48:48.566Z,53.70
2022-07-27T13:51:18.390Z,52.90
2022-07-27T13:53:48.017Z,48.70
2022-07-27T13:56:17.736Z,48.30
2022-07-27T13:58:55.077Z,49.10
2022-07-27T14:01:24.827Z,52.10
2022-07-27T14:03:54.470Z,49.20
2022-07-27T14:06:24.467Z,47.40
2022-07-27T14:08:55.396Z,50.70
2022-07-27T14:11:30.617Z,49.30
2022-07-27T14:14:02.179Z,49.20
2022-07-27T14:16:32.120Z,46.70
2022-07-27T14:19:03.316Z,45.90
2022-07-27T14:21:33.506Z,47.20
2022-07-27T14:24:06.026Z,48.40
2022-07-27T14:26:35.779Z,47.80
2022-07-27T14:29:06.789Z,45.10
2022-07-27T14:31:36.472Z,45.60
2022-07-27T14:34:06.026Z,45.50
2022-07-27T14:36:35.726Z,46.20
2022-07-27T14:39:05.436Z,47.00
2022-07-27T14:41:35.676Z,46.90
2022-07-27T14:44:07.926Z,46.40
2022-07-27T14:46:37.745Z,45.60
2022-07-27T14:49:08.905Z,45.70
2022-07-27T14:51:38.627Z,43.40
2022-07-27T14:54:08.209Z,43.40
2022-07-27T14:56:38.047Z,43.50
2022-07-27T14:59:09.217Z,45.10
2022-07-27T15:01:40.170Z,43.90
2022-07-27T15:04:09.876Z,43.30
2022-07-27T15:06:39.748Z,42.10
2022-07-27T15:09:09.587Z,41.50
2022-07-27T15:11:39.394Z,42.10
2022-07-27T15:14:11.037Z,42.40
2022-07-27T15:16:40.709Z,43.20
2022-07-27T15:19:11.283Z,43.60
2022-07-27T15:21:41.416Z,42.00
2022-07-27T15:24:11.085Z,41.80
2022-07-27T15:26:40.591Z,41.70
2022-07-27T15:29:15.021Z,43.10
2022-07-27T15:31:45.575Z,41.00
2022-07-27T15:34:15.395Z,40.80
2022-07-27T15:36:51.645Z,40.90
2022-07-27T15:39:23.486Z,42.00
2022-07-27T15:41:53.118Z,40.80
2022-07-27T15:44:24.465Z,41.70
2022-07-27T15:46:54.661Z,42.20
2022-07-27T15:49:24.437Z,41.30
2022-07-27T15:51:54.172Z,41.90
2022-07-27T15:54:24.520Z,41.40
2022-07-27T15:56:54.490Z,42.30
2022-07-27T15:59:25.598Z,40.80
2022-07-27T16:01:56.514Z,41.40
2022-07-27T16:04:27.860Z,41.70
2022-07-27T16:06:57.501Z,41.10
2022-07-27T16:09:27.142Z,41.70
2022-07-27T16:11:56.698Z,41.00
2022-07-27T16:14:27.899Z,41.60
2022-07-27T16:16:57.608Z,40.80
2022-07-27T16:19:27.175Z,41.90
2022-07-27T16:21:56.834Z,40.70
2022-07-27T16:24:28.360Z,40.30
2022-07-27T16:26:58.542Z,41.10
2022-07-27T16:29:29.747Z,40.40
2022-07-27T16:31:59.862Z,43.30
2022-07-27T16:34:31.304Z,42.20
2022-07-27T16:37:01.440Z,42.70
2022-07-27T16:39:33.631Z,42.40
2022-07-27T16:42:03.549Z,42.70
2022-07-27T16:44:35.990Z,43.10
2022-07-27T16:47:07.206Z,45.00
2022-07-27T16:49:37.202Z,46.50
2022-07-27T16:52:07.737Z,47.50
2022-07-27T16:54:39.743Z,47.80
2022-07-27T16:57:09.791Z,47.20
2022-07-27T16:59:41.990Z,47.10
2022-07-27T17:02:12.026Z,47.10
2022-07-27T17:04:41.699Z,46.50
2022-07-27T17:07:12.334Z,46.40
2022-07-27T17:09:42.641Z,46.60
2022-07-27T17:12:17.224Z,47.90
2022-07-27T17:14:50.086Z,48.00
2022-07-27T17:17:19.780Z,48.60
2022-07-27T17:19:49.296Z,47.90
2022-07-27T17:22:18.959Z,46.80
2022-07-27T17:24:48.451Z,47.20
2022-07-27T17:27:19.273Z,46.60
2022-07-27T17:29:51.965Z,46.40
2022-07-27T17:32:21.744Z,47.30
2022-07-27T17:34:51.291Z,47.40
2022-07-27T17:37:20.957Z,47.60
2022-07-27T17:39:50.597Z,47.70
2022-07-27T17:42:20.880Z,47.20
2022-07-27T17:44:52.256Z,46.40
2022-07-27T17:47:21.857Z,47.10
2022-07-27T17:49:51.477Z,47.00
2022-07-27T17:52:21.960Z,48.50
2022-07-27T17:54:51.580Z,48.00
2022-07-27T17:57:21.669Z,48.70
2022-07-27T17:59:53.189Z,49.30
2022-07-27T18:02:23.217Z,51.10
2022-07-27T18:04:52.849Z,52.10
2022-07-27T18:07:22.579Z,51.70
2022-07-27T18:09:52.048Z,52.10
2022-07-27T18:12:24.108Z,51.70
2022-07-27T18:15:12.176Z,53.10
2022-07-27T18:17:41.877Z,53.80
2022-07-27T18:20:13.071Z,54.10
2022-07-27T18:22:44.691Z,54.60
2022-07-27T18:25:14.296Z,54.20
2022-07-27T18:27:45.301Z,54.40
2022-07-27T18:30:16.600Z,55.30
2022-07-27T18:32:47.019Z,55.80
2022-07-27T18:35:16.789Z,55.90
2022-07-27T18:37:46.317Z,55.90
2022-07-27T18:40:16.638Z,56.20
2022-07-27T18:42:46.801Z,57.40
2022-07-27T18:45:18.001Z,57.40
2022-07-27T18:47:49.306Z,57.60
2022-07-27T18:50:19.499Z,57.90
2022-07-27T18:52:49.055Z,58.80
2022-07-27T18:55:21.810Z,58.70
2022-07-27T18:57:52.918Z,59.10
2022-07-27T19:00:24.722Z,59.60
2022-07-27T19:02:57.208Z,59.40
2022-07-27T19:05:32.431Z,58.80
2022-07-27T19:08:14.023Z,59.30
2022-07-27T19:10:44.159Z,60.00
2022-07-27T19:13:14.344Z,60.10
2022-07-27T19:15:46.086Z,60.60
2022-07-27T19:18:15.809Z,60.80
2022-07-27T19:20:45.398Z,60.60
2022-07-27T19:23:15.089Z,60.90
2022-07-27T19:25:45.509Z,61.00
2022-07-27T19:28:19.614Z,62.10
2022-07-27T19:30:50.881Z,62.40
2022-07-27T19:33:20.901Z,63.30
2022-07-27T19:35:50.981Z,63.30
2022-07-27T19:38:21.104Z,62.50
2022-07-27T19:40:50.668Z,63.00
2022-07-27T19:43:20.278Z,63.70
2022-07-27T19:45:52.545Z,63.70
2022-07-27T19:48:22.769Z,63.40
2022-07-27T19:50:52.346Z,63.20
2022-07-27T19:53:22.009Z,63.70
2022-07-27T19:55:52.430Z,63.30
2022-07-27T19:58:22.248Z,64.10
2022-07-27T20:00:53.489Z,64.60
2022-07-27T20:03:23.234Z,65.00
2022-07-27T20:05:52.927Z,65.40
2022-07-27T20:08:22.989Z,65.70
2022-07-27T20:10:52.498Z,65.40
2022-07-27T20:13:22.118Z,65.80
2022-07-27T20:15:53.268Z,66.10
2022-07-27T20:18:22.942Z,65.90
2022-07-27T20:20:52.839Z,66.90
2022-07-27T20:23:23.169Z,67.20
2022-07-27T20:25:52.705Z,67.10
2022-07-27T20:28:22.360Z,67.60
2022-07-27T20:30:53.591Z,66.70
2022-07-27T20:33:23.725Z,66.40
2022-07-27T20:35:53.264Z,66.30
2022-07-27T20:38:25.162Z,66.20
2022-07-27T20:40:54.985Z,65.80
2022-07-27T20:43:27.944Z,65.80
2022-07-27T20:45:59.191Z,66.00
2022-07-27T20:48:28.925Z,66.70
2022-07-27T20:50:58.447Z,66.90
2022-07-27T20:53:28.173Z,67.60
2022-07-27T20:55:57.779Z,67.60
2022-07-27T20:58:27.393Z,67.60
2022-07-27T21:00:58.478Z,67.90
2022-07-27T21:03:28.159Z,68.30
2022-07-27T21:05:57.856Z,68.30
2022-07-27T21:08:28.621Z,68.40
2022-07-27T21:10:58.559Z,69.40
2022-07-27T21:13:28.366Z,68.70
2022-07-27T21:16:00.458Z,68.60
2022-07-27T21:18:30.737Z,69.20
2022-07-27T21:21:00.347Z,68.90
2022-07-27T21:23:47.238Z,69.20
2022-07-27T21:26:18.246Z,70.10
2022-07-27T21:28:48.102Z,69.80
2022-07-27T21:31:19.181Z,70.70
2022-07-27T21:33:50.453Z,70.00
2022-07-27T21:36:20.129Z,70.40
2022-07-27T21:38:49.683Z,70.70
2022-07-27T21:41:19.383Z,70.50
2022-07-27T21:43:48.960Z,70.60
2022-07-27T21:46:20.224Z,70.80
2022-07-27T21:48:50.325Z,70.60
2022-07-27T21:51:21.524Z,70.90
2022-07-27T21:53:51.954Z,71.40
2022-07-27T21:56:21.696Z,71.90
2022-07-27T21:58:51.267Z,71.40
2022-07-27T22:01:22.429Z,71.70
2022-07-27T22:03:52.258Z,71.60
2022-07-27T22:06:22.005Z,71.20
2022-07-27T22:08:51.655Z,72.10
2022-07-27T22:11:21.208Z,72.20
2022-07-27T22:13:50.811Z,72.60
2022-07-27T22:16:21.956Z,72.90
2022-07-27T22:18:51.611Z,72.80
2022-07-27T22:21:21.566Z,72.40
2022-07-27T22:23:51.369Z,72.40
2022-07-27T22:26:20.923Z,72.40
2022-07-27T22:28:50.679Z,72.80
2022-07-27T22:31:23.445Z,73.10
2022-07-27T22:33:53.333Z,72.70
2022-07-27T22:36:22.932Z,72.90
2022-07-27T22:38:52.795Z,72.80
2022-07-27T22:41:22.406Z,72.60
2022-07-27T22:43:52.013Z,72.40
2022-07-27T22:46:25.757Z,72.40
2022-07-27T22:48:55.718Z,72.30
2022-07-27T22:51:25.412Z,73.30
2022-07-27T22:54:15.311Z,72.40
2022-07-27T22:56:45.283Z,72.70
2022-07-27T22:59:14.840Z,72.70
2022-07-27T23:01:48.022Z,73.00
2022-07-27T23:04:19.009Z,73.20
2022-07-27T23:06:48.922Z,73.70
2022-07-27T23:09:19.196Z,74.40
2022-07-27T23:11:48.872Z,76.10
2022-07-27T23:14:19.185Z,76.10
2022-07-27T23:16:50.575Z,75.60
2022-07-27T23:19:20.342Z,76.40
2022-07-27T23:21:49.909Z,76.20
2022-07-27T23:24:29.055Z,76.70
2022-07-27T23:26:59.370Z,76.30
2022-07-27T23:29:30.362Z,77.10
2022-07-27T23:32:02.831Z,77.50
2022-07-27T23:34:32.770Z,78.10
2022-07-27T23:37:02.273Z,77.80
2022-07-27T23:39:31.862Z,78.10
2022-07-27T23:42:01.569Z,77.40
2022-07-27T23:44:31.689Z,77.00
2022-07-27T23:47:03.011Z,77.80
2022-07-27T23:49:32.978Z,78.00
2022-07-27T23:52:02.874Z,77.00
2022-07-27T23:54:32.785Z,76.70
2022-07-27T23:57:02.398Z,75.80
2022-07-27T23:59:32.044Z,75.90
